Time;durP1;ratioP1;P1;durP2;ratioP2;P2;SDS_P1;SDS_P2;PMS_P1;PMS_P2;Temp;Humidity;BMP_temperature;BMP_pressure;BME280_temperature;BME280_humidity;BME280_pressure;Samples;Min_cycle;Max_cycle;Signal;HPM_P1;HPM_P2
2023/12/11 00:01:12;;;;;;;124.13;86.82;;;3.00;99.90;;;;;;4972783;28;20026;-72
2023/12/11 00:03:38;;;;;;;133.32;95.38;;;3.00;99.90;;;;;;4972986;28;20042;-74
2023/12/11 00:06:04;;;;;;;192.05;137.63;;;3.00;99.90;;;;;;4972412;28;20533;-73
2023/12/11 00:08:32;;;;;;;138.25;97.45;;;3.00;99.90;;;;;;4973281;28;20038;-74
2023/12/11 00:10:57;;;;;;;134.10;96.38;;;3.10;99.90;;;;;;4976638;28;20054;-72
2023/12/11 00:13:23;;;;;;;140.10;97.15;;;3.10;99.90;;;;;;4976801;28;20023;-72
2023/12/11 00:15:49;;;;;;;155.15;107.47;;;3.10;99.90;;;;;;4991250;28;20368;-73
2023/12/11 00:18:15;;;;;;;154.68;105.40;;;3.10;99.90;;;;;;4976416;28;20030;-73
2023/12/11 00:20:41;;;;;;;139.55;97.13;;;3.00;99.90;;;;;;4976360;28;20385;-73
2023/12/11 00:23:07;;;;;;;134.60;96.03;;;2.90;99.90;;;;;;4976339;28;20066;-73
2023/12/11 00:25:35;;;;;;;130.95;91.75;;;2.80;99.90;;;;;;4976400;28;20027;-72
2023/12/11 00:28:01;;;;;;;186.63;126.53;;;2.90;99.90;;;;;;4976290;28;20031;-73
2023/12/11 00:30:27;;;;;;;136.40;94.55;;;2.90;99.90;;;;;;4966322;28;20429;-73
2023/12/11 00:32:53;;;;;;;125.30;88.40;;;2.90;99.90;;;;;;4980412;28;20033;-74
2023/12/11 00:35:19;;;;;;;125.22;87.35;;;2.80;99.90;;;;;;4959983;28;20042;-73
2023/12/11 00:37:45;;;;;;;117.57;83.00;;;2.80;99.90;;;;;;4960667;28;20027;-72
2023/12/11 00:40:12;;;;;;;135.80;96.90;;;2.80;99.90;;;;;;4965396;28;20015;-73
2023/12/11 00:42:38;;;;;;;133.60;92.10;;;2.80;99.90;;;;;;4963160;28;20045;-72
2023/12/11 00:45:04;;;;;;;135.35;92.18;;;2.80;99.90;;;;;;4961834;28;20031;-73
2023/12/11 00:47:30;;;;;;;126.03;85.22;;;2.80;99.90;;;;;;4960639;28;20023;-73
2023/12/11 00:49:56;;;;;;;128.75;93.00;;;2.80;99.90;;;;;;4961444;28;20026;-72
2023/12/11 00:52:22;;;;;;;127.07;88.55;;;2.70;99.90;;;;;;4961865;28;20395;-72
2023/12/11 00:54:48;;;;;;;131.05;88.22;;;2.70;99.90;;;;;;4960016;28;20030;-72
2023/12/11 00:57:13;;;;;;;123.88;85.25;;;2.70;99.90;;;;;;4956559;28;20423;-75
2023/12/11 00:59:39;;;;;;;151.63;103.60;;;2.80;99.90;;;;;;4954796;28;20102;-72
2023/12/11 01:02:05;;;;;;;144.70;97.68;;;2.80;99.90;;;;;;4961137;28;20119;-73
2023/12/11 01:04:31;;;;;;;116.50;68.93;;;2.80;99.90;;;;;;4957935;28;20027;-73
2023/12/11 01:06:57;;;;;;;89.88;63.47;;;2.80;99.90;;;;;;4958943;28;20027;-73
2023/12/11 01:09:23;;;;;;;82.38;60.30;;;2.90;99.90;;;;;;4955819;28;20449;-72
2023/12/11 01:11:49;;;;;;;83.03;61.15;;;2.90;99.90;;;;;;4955371;28;20040;-74
2023/12/11 01:14:15;;;;;;;91.18;65.05;;;2.90;99.90;;;;;;4958430;28;20394;-74
2023/12/11 01:16:41;;;;;;;103.68;64.00;;;2.80;99.90;;;;;;4960769;28;20041;-72
2023/12/11 01:19:07;;;;;;;91.85;63.33;;;2.80;99.90;;;;;;4956706;28;20023;-72
2023/12/11 01:21:33;;;;;;;89.25;56.58;;;2.70;99.90;;;;;;4957344;28;20482;-72
2023/12/11 01:23:59;;;;;;;97.60;61.17;;;2.70;99.90;;;;;;4961056;28;20066;-72
2023/12/11 01:26:25;;;;;;;93.03;60.67;;;2.70;99.90;;;;;;4972365;28;20080;-72
2023/12/11 01:28:51;;;;;;;85.88;60.55;;;2.60;99.90;;;;;;4975452;28;20038;-72
2023/12/11 01:31:17;;;;;;;87.97;60.80;;;2.60;99.90;;;;;;4972168;28;20026;-73
2023/12/11 01:33:43;;;;;;;85.82;59.80;;;2.50;99.90;;;;;;4975297;28;20035;-73
2023/12/11 01:36:09;;;;;;;89.95;58.35;;;2.50;99.90;;;;;;4974680;28;20102;-73
2023/12/11 01:38:35;;;;;;;86.90;63.90;;;2.50;99.90;;;;;;4975236;28;20050;-73
2023/12/11 01:41:01;;;;;;;94.35;67.53;;;2.40;99.90;;;;;;4974671;28;20077;-74
2023/12/11 01:43:27;;;;;;;127.32;73.15;;;2.40;99.90;;;;;;4975141;28;20423;-73
2023/12/11 01:46:06;;;;;;;106.82;69.88;;;2.30;99.90;;;;;;4974500;28;20224;-72
2023/12/11 01:48:32;;;;;;;100.68;70.10;;;2.30;99.90;;;;;;4974574;28;20041;-72
2023/12/11 01:50:58;;;;;;;105.82;72.57;;;2.30;99.90;;;;;;4957128;28;20034;-73
2023/12/11 01:53:26;;;;;;;107.10;71.00;;;2.30;99.90;;;;;;4974723;28;20038;-73
2023/12/11 01:55:52;;;;;;;103.63;67.88;;;2.20;99.90;;;;;;4974094;28;20023;-73
2023/12/11 01:58:19;;;;;;;100.25;65.13;;;2.20;99.90;;;;;;4974722;28;20062;-73
2023/12/11 02:00:45;;;;;;;93.97;61.72;;;2.20;99.90;;;;;;4974700;28;20025;-72
2023/12/11 02:03:11;;;;;;;83.70;61.13;;;2.20;99.90;;;;;;4974392;28;20035;-75
2023/12/11 02:05:38;;;;;;;93.43;58.75;;;2.20;99.90;;;;;;4974298;28;20045;-74
2023/12/11 02:08:04;;;;;;;104.88;73.22;;;2.30;99.90;;;;;;4957469;28;20042;-74
2023/12/11 02:10:30;;;;;;;119.65;84.50;;;2.30;99.90;;;;;;4974235;28;20043;-75
2023/12/11 02:12:56;;;;;;;92.68;64.85;;;2.30;99.90;;;;;;4974632;28;20031;-74
2023/12/11 02:15:37;;;;;;;85.35;55.47;;;2.30;99.90;;;;;;4974054;28;20272;-75
2023/12/11 02:18:03;;;;;;;144.48;113.82;;;2.20;99.90;;;;;;4974299;28;20039;-73
2023/12/11 02:20:29;;;;;;;120.68;80.60;;;2.30;99.90;;;;;;4972730;28;20011;-73
2023/12/11 02:23:00;;;;;;;104.25;68.60;;;2.30;99.90;;;;;;4973917;28;20047;-74
2023/12/11 02:25:30;;;;;;;95.93;63.92;;;2.30;99.90;;;;;;4974386;28;20474;-75
2023/12/11 02:27:57;;;;;;;87.72;58.53;;;2.40;99.90;;;;;;4974164;28;20030;-74
2023/12/11 02:30:24;;;;;;;88.93;59.33;;;2.40;99.90;;;;;;4974164;28;20030;-73
2023/12/11 02:32:53;;;;;;;82.35;58.60;;;2.50;99.90;;;;;;4972833;28;20486;-72
2023/12/11 02:35:19;;;;;;;89.18;64.95;;;2.50;99.90;;;;;;4974110;28;20093;-73
2023/12/11 02:37:44;;;;;;;116.88;79.60;;;2.50;99.90;;;;;;4973710;28;20042;-72
2023/12/11 02:40:11;;;;;;;126.90;90.78;;;2.50;99.90;;;;;;4972844;28;20030;-73
2023/12/11 02:42:36;;;;;;;129.88;89.90;;;2.50;99.90;;;;;;4973566;28;20105;-72
2023/12/11 02:45:02;;;;;;;163.32;107.55;;;2.60;99.90;;;;;;4973520;28;20027;-72
2023/12/11 02:47:28;;;;;;;157.85;103.57;;;2.50;99.90;;;;;;4973843;28;20437;-72
2023/12/11 02:49:54;;;;;;;126.55;86.03;;;2.50;99.90;;;;;;4973637;28;20102;-73
2023/12/11 02:52:20;;;;;;;103.75;71.38;;;2.50;99.90;;;;;;4973060;28;20034;-73
2023/12/11 02:54:46;;;;;;;163.38;58.28;;;2.50;99.90;;;;;;4973621;28;20109;-73
2023/12/11 02:57:12;;;;;;;180.48;74.38;;;2.40;99.90;;;;;;4973240;28;20134;-73
2023/12/11 02:59:38;;;;;;;109.15;63.38;;;2.30;99.90;;;;;;4973497;28;20069;-73
2023/12/11 03:02:04;;;;;;;78.80;53.25;;;2.30;99.90;;;;;;4973419;28;20386;-73
2023/12/11 03:04:29;;;;;;;66.43;46.55;;;2.20;99.90;;;;;;4955333;28;20049;-73
2023/12/11 03:06:55;;;;;;;63.78;41.53;;;2.20;99.90;;;;;;4973158;28;20031;-73
2023/12/11 03:09:21;;;;;;;97.38;61.58;;;2.10;99.90;;;;;;4973165;28;20030;-73
2023/12/11 03:11:47;;;;;;;103.85;67.40;;;2.10;99.90;;;;;;4973395;28;20042;-73
2023/12/11 03:14:13;;;;;;;71.88;48.40;;;2.00;99.90;;;;;;4973477;28;20059;-73
2023/12/11 03:16:39;;;;;;;94.57;61.85;;;2.00;99.90;;;;;;4972894;28;20548;-73
2023/12/11 03:19:06;;;;;;;76.30;52.05;;;2.00;99.90;;;;;;4973339;28;20242;-72
2023/12/11 03:21:32;;;;;;;82.13;55.38;;;2.00;99.90;;;;;;4972879;28;20142;-72
2023/12/11 03:23:58;;;;;;;53.00;35.13;;;1.90;99.90;;;;;;4973334;28;20038;-73
2023/12/11 03:26:24;;;;;;;40.28;28.98;;;1.90;99.90;;;;;;4973191;28;20055;-73
2023/12/11 03:28:49;;;;;;;41.40;28.55;;;1.90;99.90;;;;;;4973225;28;20109;-73
2023/12/11 03:31:15;;;;;;;62.65;39.95;;;1.90;99.90;;;;;;4973112;28;20023;-72
2023/12/11 03:33:41;;;;;;;68.53;45.00;;;2.00;99.90;;;;;;4972839;28;20026;-73
2023/12/11 03:36:08;;;;;;;62.85;40.22;;;2.00;99.90;;;;;;4972754;28;20367;-72
2023/12/11 03:38:34;;;;;;;51.42;35.10;;;1.90;99.90;;;;;;4972919;28;20418;-74
2023/12/11 03:41:00;;;;;;;58.22;37.75;;;1.90;99.90;;;;;;4972706;28;20462;-72
2023/12/11 03:43:25;;;;;;;60.55;38.17;;;1.70;99.90;;;;;;4972682;28;20041;-72
2023/12/11 03:45:54;;;;;;;54.13;36.38;;;1.70;99.90;;;;;;4973123;28;20029;-72
2023/12/11 03:48:20;;;;;;;45.85;31.35;;;1.70;99.90;;;;;;4972985;28;20027;-72
2023/12/11 03:50:46;;;;;;;52.17;31.35;;;1.70;99.90;;;;;;4972624;28;20433;-72
2023/12/11 03:53:12;;;;;;;41.15;31.65;;;1.60;99.90;;;;;;4972656;28;20027;-74
2023/12/11 03:55:38;;;;;;;37.83;28.42;;;1.70;99.90;;;;;;4972221;28;20029;-72
2023/12/11 03:58:04;;;;;;;37.35;27.77;;;1.60;99.90;;;;;;4972884;28;20038;-73
2023/12/11 04:00:30;;;;;;;48.53;35.40;;;1.60;99.90;;;;;;4972742;28;20027;-75
2023/12/11 04:02:56;;;;;;;39.28;28.90;;;1.60;99.90;;;;;;4972495;28;20035;-74
2023/12/11 04:05:22;;;;;;;37.00;26.80;;;1.60;99.90;;;;;;4972432;28;20365;-73
2023/12/11 04:07:48;;;;;;;40.75;28.60;;;1.70;99.90;;;;;;4972850;28;20360;-74
2023/12/11 04:10:14;;;;;;;41.60;29.65;;;1.60;99.90;;;;;;4971898;28;20499;-74
2023/12/11 04:12:42;;;;;;;41.08;31.35;;;1.60;99.90;;;;;;4973002;28;20047;-73
2023/12/11 04:15:09;;;;;;;42.22;29.75;;;1.60;99.90;;;;;;4972040;28;20039;-74
2023/12/11 04:17:35;;;;;;;45.53;33.75;;;1.60;99.90;;;;;;4972680;28;20102;-74
2023/12/11 04:20:00;;;;;;;63.25;43.67;;;1.60;99.90;;;;;;4955242;28;20034;-74
2023/12/11 04:22:27;;;;;;;57.85;40.38;;;1.60;99.90;;;;;;4972475;28;20465;-74
2023/12/11 04:24:53;;;;;;;54.08;38.30;;;1.60;99.90;;;;;;4972745;28;20035;-75
2023/12/11 04:27:19;;;;;;;54.20;39.45;;;1.50;99.90;;;;;;4972144;28;20349;-74
2023/12/11 04:29:45;;;;;;;47.25;31.17;;;1.50;99.90;;;;;;4972306;28;20462;-74
2023/12/11 04:32:11;;;;;;;48.22;33.22;;;1.60;99.90;;;;;;4972261;28;20058;-75
2023/12/11 04:34:37;;;;;;;56.20;38.15;;;1.60;99.90;;;;;;4972738;28;20027;-74
2023/12/11 04:37:03;;;;;;;58.60;39.65;;;1.60;99.90;;;;;;4971804;28;20385;-74
2023/12/11 04:39:29;;;;;;;52.30;36.78;;;1.60;99.90;;;;;;4971485;28;20034;-74
2023/12/11 04:41:54;;;;;;;60.40;39.00;;;1.50;99.90;;;;;;4971920;28;20414;-76
2023/12/11 04:44:20;;;;;;;52.67;39.70;;;1.40;99.90;;;;;;4972151;28;20058;-74
2023/12/11 04:46:46;;;;;;;62.78;43.03;;;1.30;99.90;;;;;;4972250;28;20038;-74
2023/12/11 04:49:12;;;;;;;61.58;44.28;;;1.30;99.90;;;;;;4958085;28;20027;-74
2023/12/11 04:51:38;;;;;;;89.05;63.55;;;1.20;99.90;;;;;;4971409;28;20030;-74
2023/12/11 04:54:04;;;;;;;100.97;67.30;;;1.20;99.90;;;;;;4967918;28;20065;-73
2023/12/11 04:56:30;;;;;;;59.10;43.03;;;1.10;99.90;;;;;;4974931;28;20031;-73
2023/12/11 04:58:56;;;;;;;50.92;35.67;;;1.10;99.90;;;;;;4975460;28;20030;-73
2023/12/11 05:01:25;;;;;;;53.85;40.45;;;1.00;99.90;;;;;;4975800;28;20110;-74
2023/12/11 05:03:51;;;;;;;67.00;47.53;;;0.90;99.90;;;;;;4975426;28;20071;-74
2023/12/11 05:06:17;;;;;;;57.33;42.92;;;0.90;99.90;;;;;;4975906;28;20090;-73
2023/12/11 05:08:43;;;;;;;48.28;36.03;;;0.90;99.90;;;;;;4968717;28;20513;-74
2023/12/11 05:11:09;;;;;;;43.38;32.92;;;1.00;99.90;;;;;;4970013;28;20043;-73
2023/12/11 05:13:35;;;;;;;49.20;35.63;;;0.90;99.90;;;;;;4966790;28;20102;-72
2023/12/11 05:16:01;;;;;;;46.20;33.67;;;0.90;99.90;;;;;;4967993;28;20023;-75
2023/12/11 05:18:27;;;;;;;49.10;33.70;;;0.80;99.90;;;;;;4962872;28;20038;-72
2023/12/11 05:20:53;;;;;;;47.67;37.25;;;0.90;99.90;;;;;;4962597;28;20026;-74
2023/12/11 05:23:19;;;;;;;52.50;39.78;;;0.90;99.90;;;;;;4975100;28;20031;-74
2023/12/11 05:25:44;;;;;;;49.95;34.92;;;0.90;99.90;;;;;;4975283;28;20037;-74
2023/12/11 05:28:10;;;;;;;49.50;35.55;;;0.80;99.90;;;;;;4974835;28;20034;-74
2023/12/11 05:30:36;;;;;;;48.08;34.30;;;0.80;99.90;;;;;;4974482;28;20030;-73
2023/12/11 05:33:02;;;;;;;47.63;34.30;;;0.80;99.90;;;;;;4975012;28;20442;-75
2023/12/11 05:35:28;;;;;;;50.38;34.80;;;0.80;99.90;;;;;;4975051;28;20105;-74
2023/12/11 05:37:57;;;;;;;47.78;33.58;;;0.80;99.90;;;;;;4975254;28;20463;-74
2023/12/11 05:40:23;;;;;;;53.35;40.80;;;0.70;99.90;;;;;;4975054;28;20050;-73
2023/12/11 05:42:50;;;;;;;48.03;35.90;;;0.80;99.90;;;;;;4975063;28;20042;-74
2023/12/11 05:45:16;;;;;;;45.88;33.30;;;0.80;99.90;;;;;;4974999;28;20039;-75
2023/12/11 05:47:42;;;;;;;52.15;36.08;;;0.90;99.90;;;;;;4973428;28;20035;-74
2023/12/11 05:50:08;;;;;;;54.08;36.60;;;0.90;99.90;;;;;;4974775;28;20066;-75
2023/12/11 05:52:34;;;;;;;53.15;35.33;;;1.00;99.90;;;;;;4954839;28;20146;-74
2023/12/11 05:55:00;;;;;;;51.75;33.85;;;1.00;99.90;;;;;;4974572;28;20098;-74
2023/12/11 05:57:26;;;;;;;48.50;33.83;;;1.00;99.90;;;;;;4974453;28;20038;-75
2023/12/11 05:59:51;;;;;;;45.45;32.88;;;1.10;99.90;;;;;;4974901;28;20027;-75
2023/12/11 06:02:17;;;;;;;51.03;33.25;;;1.10;99.90;;;;;;4973930;28;20089;-74
2023/12/11 06:04:43;;;;;;;50.20;34.42;;;1.10;99.90;;;;;;4974708;28;20467;-75
2023/12/11 06:07:09;;;;;;;45.63;32.95;;;1.10;99.90;;;;;;4973508;28;20352;-75
2023/12/11 06:09:35;;;;;;;52.17;32.65;;;1.10;99.90;;;;;;4973764;28;20026;-74
2023/12/11 06:12:01;;;;;;;51.00;34.33;;;0.90;99.90;;;;;;4974058;28;20070;-74
2023/12/11 06:14:27;;;;;;;49.15;35.42;;;0.90;99.90;;;;;;4973860;28;20489;-75
2023/12/11 06:16:53;;;;;;;46.53;33.83;;;0.90;99.90;;;;;;4974429;28;20430;-74
2023/12/11 06:19:19;;;;;;;49.78;36.08;;;1.00;99.90;;;;;;4973026;28;20026;-72
2023/12/11 06:21:45;;;;;;;48.13;34.97;;;1.00;99.90;;;;;;4974213;28;20066;-75
2023/12/11 06:24:11;;;;;;;45.90;32.55;;;1.00;99.90;;;;;;4973890;28;20030;-76
2023/12/11 06:26:42;;;;;;;49.83;37.10;;;1.10;99.90;;;;;;4974313;28;20031;-75
2023/12/11 06:29:08;;;;;;;58.03;42.17;;;1.10;99.90;;;;;;4974112;28;20065;-74
2023/12/11 06:31:34;;;;;;;59.38;44.70;;;1.20;99.90;;;;;;4974283;28;20076;-75
2023/12/11 06:34:00;;;;;;;56.72;41.92;;;1.30;99.90;;;;;;4961071;28;20533;-75
2023/12/11 06:36:28;;;;;;;59.63;42.10;;;1.40;99.90;;;;;;4973963;28;20102;-75
2023/12/11 06:38:54;;;;;;;55.28;39.30;;;1.60;99.90;;;;;;4971576;28;20023;-75
2023/12/11 06:41:20;;;;;;;57.20;41.70;;;1.70;99.90;;;;;;4973804;28;20023;-76
2023/12/11 06:43:48;;;;;;;52.60;33.55;;;1.90;99.90;;;;;;4973976;28;20093;-76
2023/12/11 06:46:14;;;;;;;55.47;36.97;;;2.10;99.90;;;;;;4973441;28;20203;-76
2023/12/11 06:48:41;;;;;;;54.53;36.30;;;2.10;99.90;;;;;;4974223;28;20085;-76
2023/12/11 06:51:07;;;;;;;63.75;44.05;;;2.20;99.90;;;;;;4973310;28;20050;-75
2023/12/11 06:53:33;;;;;;;47.80;32.90;;;2.30;99.90;;;;;;4972181;28;20601;-75
2023/12/11 06:55:58;;;;;;;57.70;37.53;;;2.40;99.90;;;;;;4972603;28;20540;-75
2023/12/11 06:58:24;;;;;;;39.13;28.55;;;2.10;99.90;;;;;;4973170;28;20390;-75
2023/12/11 07:00:50;;;;;;;42.22;30.25;;;2.10;99.90;;;;;;4972979;28;20118;-76
2023/12/11 07:03:17;;;;;;;47.85;36.30;;;2.00;99.90;;;;;;4973239;28;20045;-75
2023/12/11 07:05:43;;;;;;;45.78;34.08;;;1.80;99.90;;;;;;4972992;28;20034;-75
2023/12/11 07:08:10;;;;;;;41.00;27.25;;;1.80;99.90;;;;;;4972327;28;20077;-75
2023/12/11 07:10:36;;;;;;;39.70;28.45;;;2.00;99.90;;;;;;4972513;28;20043;-75
2023/12/11 07:13:05;;;;;;;51.15;35.00;;;2.10;99.90;;;;;;4972418;28;20039;-75
2023/12/11 07:15:31;;;;;;;52.90;38.75;;;2.30;99.90;;;;;;4973015;28;20057;-76
2023/12/11 07:17:57;;;;;;;57.45;40.22;;;2.40;99.90;;;;;;4972634;28;20455;-75
2023/12/11 07:20:23;;;;;;;52.50;36.30;;;2.50;99.90;;;;;;4960603;28;20072;-74
2023/12/11 07:22:50;;;;;;;50.50;31.63;;;2.70;99.90;;;;;;4973486;28;20077;-76
2023/12/11 07:25:16;;;;;;;48.85;32.78;;;2.90;99.90;;;;;;4972638;28;20023;-75
2023/12/11 07:27:43;;;;;;;45.08;31.73;;;3.00;99.90;;;;;;4973276;28;20143;-75
2023/12/11 07:30:10;;;;;;;46.67;29.55;;;3.20;99.90;;;;;;4987308;28;20025;-76
2023/12/11 07:32:37;;;;;;;48.17;32.65;;;3.40;99.90;;;;;;4955586;28;20391;-75
2023/12/11 07:35:03;;;;;;;50.22;31.38;;;3.60;99.90;;;;;;4972211;28;20026;-74
2023/12/11 07:37:29;;;;;;;45.30;29.30;;;3.70;99.90;;;;;;4972721;28;20106;-75
2023/12/11 07:39:55;;;;;;;44.03;30.65;;;3.80;99.90;;;;;;4972061;28;20073;-75
2023/12/11 07:42:22;;;;;;;53.38;35.38;;;3.80;99.90;;;;;;4972472;28;20035;-74
2023/12/11 07:44:48;;;;;;;53.42;35.20;;;3.80;99.90;;;;;;4972444;28;20474;-75
2023/12/11 07:47:14;;;;;;;50.58;32.35;;;3.90;99.90;;;;;;4973160;28;20034;-76
2023/12/11 07:49:40;;;;;;;51.05;30.67;;;3.90;99.90;;;;;;4972743;28;20029;-75
2023/12/11 07:52:06;;;;;;;47.38;32.92;;;3.90;99.90;;;;;;4972931;28;20097;-76
2023/12/11 07:54:32;;;;;;;53.65;38.65;;;3.90;99.90;;;;;;4972368;28;20038;-74
2023/12/11 07:56:58;;;;;;;61.15;43.95;;;4.00;99.90;;;;;;4972296;28;20023;-73
2023/12/11 07:59:24;;;;;;;54.38;39.15;;;4.00;99.90;;;;;;4972466;28;20023;-75
2023/12/11 08:01:52;;;;;;;46.22;30.88;;;4.00;99.90;;;;;;4972682;28;20108;-73
2023/12/11 08:04:18;;;;;;;38.13;24.23;;;4.10;99.90;;;;;;4972268;28;20057;-75
2023/12/11 08:06:44;;;;;;;39.10;20.05;;;4.10;99.90;;;;;;4972637;28;20023;-75
2023/12/11 08:09:11;;;;;;;34.45;19.23;;;4.10;99.90;;;;;;4966039;28;20153;-75
2023/12/11 08:11:37;;;;;;;33.72;19.63;;;4.20;99.90;;;;;;4972460;28;20051;-76
2023/12/11 08:14:03;;;;;;;36.45;22.95;;;4.20;99.90;;;;;;4972378;28;20031;-74
2023/12/11 08:16:29;;;;;;;41.80;26.25;;;4.30;99.90;;;;;;4981264;28;20022;-75
2023/12/11 08:18:55;;;;;;;46.35;31.02;;;4.40;99.90;;;;;;4967823;28;20047;-76
2023/12/11 08:21:21;;;;;;;43.15;29.20;;;4.50;99.90;;;;;;4972605;28;20154;-74
2023/12/11 08:23:47;;;;;;;42.08;25.98;;;4.50;99.90;;;;;;4964986;28;20089;-74
2023/12/11 08:26:20;;;;;;;39.58;26.35;;;4.60;99.90;;;;;;4972836;28;20542;-73
2023/12/11 08:28:47;;;;;;;41.50;23.70;;;4.60;99.90;;;;;;4969614;28;20026;-74
2023/12/11 08:31:13;;;;;;;30.55;18.80;;;4.70;99.90;;;;;;4975674;28;20382;-73
2023/12/11 08:33:39;;;;;;;36.30;22.60;;;4.70;99.90;;;;;;4975950;28;20030;-74
2023/12/11 08:36:06;;;;;;;34.00;21.38;;;4.80;99.90;;;;;;4976018;28;20473;-75
2023/12/11 08:38:32;;;;;;;33.47;20.35;;;4.80;99.90;;;;;;4975558;28;20030;-74
2023/12/11 08:40:58;;;;;;;36.08;23.17;;;4.80;99.90;;;;;;4975869;28;20034;-74
2023/12/11 08:43:25;;;;;;;30.25;18.23;;;4.90;99.90;;;;;;4975961;28;20053;-73
2023/12/11 08:45:52;;;;;;;43.10;27.48;;;4.90;99.90;;;;;;4971151;28;20026;-73
2023/12/11 08:48:18;;;;;;;44.45;32.47;;;5.00;99.90;;;;;;4976170;28;20359;-74
2023/12/11 08:50:44;;;;;;;43.83;30.38;;;5.10;99.90;;;;;;4975665;28;20106;-75
2023/12/11 08:53:10;;;;;;;41.50;27.17;;;5.20;99.90;;;;;;4975643;28;20105;-73
2023/12/11 08:55:36;;;;;;;51.08;35.90;;;5.50;99.90;;;;;;4975579;28;20110;-74
2023/12/11 08:58:03;;;;;;;44.22;30.02;;;5.80;99.90;;;;;;4975860;28;20023;-74
2023/12/11 09:00:29;;;;;;;47.50;28.48;;;6.10;99.90;;;;;;4975066;28;20019;-74
2023/12/11 09:02:55;;;;;;;38.92;24.10;;;6.30;99.90;;;;;;4975949;28;20061;-73
2023/12/11 09:05:21;;;;;;;32.83;22.33;;;6.40;99.90;;;;;;4975531;28;20526;-74
2023/12/11 09:07:47;;;;;;;35.95;21.85;;;6.40;99.90;;;;;;4975787;28;20482;-74
2023/12/11 09:10:13;;;;;;;35.75;21.40;;;6.40;99.90;;;;;;4975026;28;20054;-73
2023/12/11 09:12:39;;;;;;;30.55;18.75;;;6.50;99.90;;;;;;4974909;28;20125;-73
2023/12/11 09:15:06;;;;;;;37.45;21.30;;;6.50;99.90;;;;;;4975258;28;20089;-73
2023/12/11 09:17:32;;;;;;;46.33;30.02;;;6.70;99.90;;;;;;4974889;28;20054;-73
2023/12/11 09:19:58;;;;;;;42.78;27.02;;;6.90;99.90;;;;;;4974781;28;20382;-73
2023/12/11 09:22:25;;;;;;;30.00;20.08;;;6.80;99.90;;;;;;4976110;28;20035;-73
2023/12/11 09:24:51;;;;;;;39.13;20.88;;;6.90;99.90;;;;;;4975346;28;20101;-74
2023/12/11 09:27:17;;;;;;;37.10;19.85;;;7.00;99.90;;;;;;4968466;28;20085;-73
2023/12/11 09:29:43;;;;;;;31.45;20.25;;;7.10;99.90;;;;;;4971114;28;20027;-74
2023/12/11 09:32:09;;;;;;;44.47;29.92;;;6.90;99.90;;;;;;4974760;28;20175;-74
2023/12/11 09:34:35;;;;;;;29.73;17.25;;;6.80;99.90;;;;;;4974298;28;20031;-73
2023/12/11 09:37:02;;;;;;;26.75;15.90;;;6.80;99.90;;;;;;4974581;28;20405;-74
2023/12/11 09:39:28;;;;;;;26.00;14.73;;;7.00;99.90;;;;;;4974364;28;20553;-74
2023/12/11 09:41:55;;;;;;;27.38;14.02;;;7.10;99.90;;;;;;4974908;28;20540;-74
2023/12/11 09:44:21;;;;;;;21.88;14.82;;;7.30;99.90;;;;;;4973744;28;20034;-73
2023/12/11 09:46:55;;;;;;;28.75;15.95;;;7.00;99.90;;;;;;4975037;28;20077;-74
2023/12/11 09:49:21;;;;;;;29.15;16.17;;;7.10;99.90;;;;;;4974641;28;20030;-73
2023/12/11 09:51:47;;;;;;;28.38;16.67;;;6.80;99.90;;;;;;4973271;28;20416;-74
2023/12/11 09:54:13;;;;;;;27.23;16.27;;;6.80;99.90;;;;;;4975275;28;20034;-73
2023/12/11 09:56:40;;;;;;;29.25;17.10;;;7.10;99.90;;;;;;4975821;28;20027;-74
2023/12/11 09:59:09;;;;;;;25.08;15.30;;;7.30;99.90;;;;;;4970150;28;20037;-73
2023/12/11 10:01:35;;;;;;;32.45;19.83;;;7.30;99.90;;;;;;4974474;28;20434;-74
2023/12/11 10:04:00;;;;;;;42.78;27.58;;;7.60;99.90;;;;;;4974592;28;20050;-73
2023/12/11 10:06:26;;;;;;;36.50;24.50;;;7.70;99.90;;;;;;4973510;28;20050;-74
2023/12/11 10:08:53;;;;;;;46.75;27.40;;;7.80;99.90;;;;;;4974574;28;20045;-74
2023/12/11 10:11:22;;;;;;;39.08;23.98;;;7.90;99.90;;;;;;4978196;28;20054;-72
2023/12/11 10:13:49;;;;;;;28.23;17.00;;;8.10;99.90;;;;;;4956824;28;20042;-73
2023/12/11 10:16:44;;;;;;;27.75;16.88;;;8.30;99.90;;;;;;4974611;28;20031;-73
2023/12/11 10:19:10;;;;;;;32.75;21.38;;;8.30;99.90;;;;;;4933472;29;20096;-73
2023/12/11 10:21:39;;;;;;;39.90;24.45;;;8.20;99.90;;;;;;4933792;29;20031;-73
2023/12/11 10:24:15;;;;;;;36.72;24.70;;;8.20;99.90;;;;;;4932333;29;20135;-73
2023/12/11 10:26:55;;;;;;;32.05;20.60;;;8.20;99.90;;;;;;4933241;29;20027;-74
2023/12/11 10:29:30;;;;;;;38.80;23.63;;;8.20;99.90;;;;;;4933767;29;20040;-74
2023/12/11 10:32:03;;;;;;;35.05;22.10;;;8.20;99.90;;;;;;4931609;29;20023;-74
2023/12/11 10:34:50;;;;;;;36.88;23.60;;;8.10;99.90;;;;;;4933398;29;20065;-73
2023/12/11 10:37:19;;;;;;;29.42;14.65;;;8.20;99.90;;;;;;4933541;29;20472;-73
2023/12/11 10:39:54;;;;;;;29.33;19.13;;;8.40;99.90;;;;;;4932497;29;20039;-73
2023/12/11 10:42:20;;;;;;;34.50;20.17;;;8.30;99.90;;;;;;4931742;29;20224;-73
2023/12/11 10:44:46;;;;;;;29.85;19.85;;;8.40;99.90;;;;;;4933513;29;20063;-73
2023/12/11 10:47:12;;;;;;;32.13;18.38;;;8.40;99.90;;;;;;4933126;29;20059;-73
2023/12/11 10:49:39;;;;;;;29.38;18.15;;;8.50;99.90;;;;;;4933095;29;20082;-74
2023/12/11 10:52:06;;;;;;;27.42;17.17;;;8.70;99.90;;;;;;4931114;29;20075;-72
2023/12/11 10:54:34;;;;;;;29.45;15.55;;;8.80;99.90;;;;;;4934735;29;20050;-73
2023/12/11 10:57:03;;;;;;;23.90;15.02;;;8.80;99.90;;;;;;4966920;28;20026;-73
2023/12/11 10:59:33;;;;;;;26.23;15.20;;;8.90;99.90;;;;;;4973672;28;20027;-72
2023/12/11 11:02:00;;;;;;;28.08;18.08;;;9.00;99.90;;;;;;4972699;28;20110;-73
2023/12/11 11:04:30;;;;;;;29.38;19.73;;;9.10;99.90;;;;;;4973297;28;20410;-72
2023/12/11 11:07:25;;;;;;;27.55;18.38;;;9.30;99.90;;;;;;4973402;28;20086;-72
2023/12/11 11:10:07;;;;;;;32.65;20.25;;;9.40;99.90;;;;;;4973548;28;20498;-76
2023/12/11 11:13:08;;;;;;;33.40;21.37;;;9.40;99.90;;;;;;4972847;28;20058;-73
2023/12/11 11:15:34;;;;;;;36.67;24.35;;;9.50;99.90;;;;;;4973105;28;20027;-74
2023/12/11 11:18:02;;;;;;;35.78;23.38;;;9.60;99.90;;;;;;4973377;28;20023;-74
2023/12/11 11:20:30;;;;;;;35.05;24.80;;;9.60;99.90;;;;;;4973142;28;20113;-74
2023/12/11 11:23:26;;;;;;;42.13;26.67;;;9.60;99.90;;;;;;4972921;28;20105;-74
2023/12/11 11:25:53;;;;;;;45.22;29.20;;;9.70;99.90;;;;;;4923422;29;20044;-75
2023/12/11 11:28:40;;;;;;;43.90;30.30;;;9.80;99.90;;;;;;4932448;29;20059;-74
2023/12/11 11:31:07;;;;;;;54.08;35.28;;;9.70;99.90;;;;;;4932359;29;20415;-74
2023/12/11 11:33:49;;;;;;;53.30;34.85;;;9.80;99.90;;;;;;4919937;29;20020;-74
2023/12/11 11:36:20;;;;;;;53.60;36.05;;;10.00;99.90;;;;;;4929447;29;20550;-72
2023/12/11 11:39:00;;;;;;;49.95;35.47;;;9.90;99.90;;;;;;4932428;29;20085;-71
2023/12/11 11:41:30;;;;;;;54.38;35.63;;;9.90;99.90;;;;;;4932437;29;20042;-71
2023/12/11 11:44:04;;;;;;;45.88;32.85;;;9.90;99.90;;;;;;4932344;29;20048;-71
2023/12/11 11:46:50;;;;;;;50.35;34.58;;;10.00;99.90;;;;;;4932548;29;20047;-72
2023/12/11 11:49:31;;;;;;;53.67;36.65;;;10.00;99.90;;;;;;4916792;29;20102;-71
2023/12/11 11:51:58;;;;;;;85.50;54.65;;;10.00;99.90;;;;;;4940087;29;20042;-74
2023/12/11 11:54:25;;;;;;;62.80;42.63;;;10.10;99.90;;;;;;4932333;29;20027;-72
2023/12/11 11:56:51;;;;;;;62.05;42.55;;;10.20;99.90;;;;;;4932172;29;20048;-72
2023/12/11 11:59:20;;;;;;;64.65;44.92;;;10.20;99.90;;;;;;4915754;29;20025;-72
2023/12/11 12:01:55;;;;;;;64.75;45.15;;;10.20;99.90;;;;;;4938851;29;20042;-72
2023/12/11 12:04:27;;;;;;;62.00;42.00;;;10.20;99.90;;;;;;4962176;28;20039;-72
2023/12/11 12:06:55;;;;;;;51.83;35.30;;;10.10;99.90;;;;;;4976490;28;20035;-74
2023/12/11 12:09:21;;;;;;;43.00;29.40;;;10.20;99.90;;;;;;4968612;28;20035;-73
2023/12/11 12:11:47;;;;;;;46.92;27.65;;;10.20;99.90;;;;;;4976320;28;20111;-74
2023/12/11 12:14:13;;;;;;;43.15;25.48;;;10.30;99.90;;;;;;4976513;28;20982;-74
2023/12/11 12:16:39;;;;;;;37.67;23.35;;;10.30;99.90;;;;;;4976228;28;20123;-74
2023/12/11 12:19:05;;;;;;;31.85;21.48;;;10.30;99.90;;;;;;4976739;28;20386;-72
2023/12/11 12:21:32;;;;;;;29.88;18.90;;;10.40;99.90;;;;;;4976319;28;20019;-74
2023/12/11 12:24:03;;;;;;;32.63;20.27;;;10.40;99.90;;;;;;4976255;28;20386;-71
2023/12/11 12:26:34;;;;;;;33.25;18.95;;;10.40;99.90;;;;;;4958886;28;20033;-72
2023/12/11 12:29:00;;;;;;;31.85;18.08;;;10.50;99.90;;;;;;4976631;28;20382;-74
2023/12/11 12:31:26;;;;;;;30.10;20.20;;;10.40;99.90;;;;;;4975932;28;20030;-74
2023/12/11 12:33:52;;;;;;;33.13;20.27;;;10.50;99.90;;;;;;4976346;28;20023;-73